createdAt,value
2018-01-22T00:00:17.595Z,2.30
2018-01-22T00:02:48.730Z,2.29
2018-01-22T00:05:19.755Z,2.32
2018-01-22T00:07:50.963Z,2.32
2018-01-22T00:10:22.041Z,2.36
2018-01-22T00:12:53.148Z,2.45
2018-01-22T00:15:24.200Z,2.51
2018-01-22T00:17:55.324Z,2.54
2018-01-22T00:20:26.446Z,2.66
2018-01-22T00:22:57.528Z,2.75
2018-01-22T00:25:28.638Z,2.87
2018-01-22T00:27:59.732Z,2.97
2018-01-22T00:30:30.948Z,3.02
2018-01-22T00:33:02.022Z,3.08
2018-01-22T00:35:33.368Z,3.19
2018-01-22T00:38:04.403Z,3.23
2018-01-22T00:40:35.542Z,3.28
2018-01-22T00:43:06.626Z,3.31
2018-01-22T00:45:37.721Z,3.29
2018-01-22T00:48:08.843Z,3.33
2018-01-22T00:50:39.892Z,3.40
2018-01-22T00:53:11.051Z,3.44
2018-01-22T00:55:42.094Z,3.34
2018-01-22T00:58:13.170Z,3.24
2018-01-22T01:00:44.230Z,3.22
2018-01-22T01:03:15.330Z,3.18
2018-01-22T01:05:46.389Z,3.20
2018-01-22T01:08:17.512Z,3.23
2018-01-22T01:10:48.591Z,3.33
2018-01-22T01:13:19.713Z,3.36
2018-01-22T01:15:50.756Z,3.31
2018-01-22T01:18:21.880Z,3.25
2018-01-22T01:20:52.961Z,3.23
2018-01-22T01:23:24.122Z,3.29
2018-01-22T01:25:55.183Z,3.34
2018-01-22T01:28:26.273Z,3.28
2018-01-22T01:30:57.395Z,3.25
2018-01-22T01:33:28.823Z,3.28
2018-01-22T01:35:59.932Z,3.26
2018-01-22T01:38:31.055Z,3.26
2018-01-22T01:41:02.190Z,3.30
2018-01-22T01:43:33.284Z,3.31
2018-01-22T01:46:04.384Z,3.32
2018-01-22T01:48:35.482Z,3.30
2018-01-22T01:51:06.531Z,3.32
2018-01-22T01:53:37.644Z,3.40
2018-01-22T01:56:08.682Z,3.45
2018-01-22T01:58:39.816Z,3.47
2018-01-22T02:01:10.867Z,3.49
2018-01-22T02:03:41.983Z,3.58
2018-01-22T02:06:13.065Z,3.72
2018-01-22T02:08:44.318Z,3.78
2018-01-22T02:11:15.387Z,3.83
2018-01-22T02:13:46.510Z,3.92
2018-01-22T02:16:17.543Z,3.99
2018-01-22T02:18:48.628Z,3.97
2018-01-22T02:21:19.828Z,3.91
2018-01-22T02:23:50.923Z,3.81
2018-01-22T02:26:22.017Z,3.67
2018-01-22T02:28:53.089Z,3.58
2018-01-22T02:31:24.181Z,3.56
2018-01-22T02:33:55.296Z,3.69
2018-01-22T02:36:26.384Z,3.67
2018-01-22T02:38:57.918Z,3.77
2018-01-22T02:41:29.144Z,3.77
2018-01-22T02:44:00.254Z,3.76
2018-01-22T02:46:31.293Z,3.67
2018-01-22T02:49:02.604Z,3.70
2018-01-22T02:51:33.679Z,3.72
2018-01-22T02:54:04.794Z,3.71
2018-01-22T02:56:35.906Z,3.62
2018-01-22T02:59:07.026Z,3.54
2018-01-22T03:01:38.099Z,3.52
2018-01-22T03:04:09.258Z,3.42
2018-01-22T03:06:40.340Z,3.39
2018-01-22T03:09:11.666Z,3.46
2018-01-22T03:11:42.683Z,3.45
2018-01-22T03:14:13.771Z,3.40
2018-01-22T03:16:44.848Z,3.43
2018-01-22T03:19:15.978Z,3.48
2018-01-22T03:21:47.047Z,3.41
2018-01-22T03:24:18.149Z,3.43
2018-01-22T03:26:49.257Z,3.44
2018-01-22T03:29:20.367Z,3.52
2018-01-22T03:31:51.457Z,3.49
2018-01-22T03:34:22.557Z,3.59
2018-01-22T03:36:53.626Z,3.58
2018-01-22T03:39:24.738Z,3.51
2018-01-22T03:41:55.835Z,3.47
2018-01-22T03:44:26.913Z,3.41
2018-01-22T03:46:58.044Z,3.37
2018-01-22T03:49:29.101Z,3.47
2018-01-22T03:52:00.210Z,3.49
2018-01-22T03:54:31.237Z,3.47
2018-01-22T03:57:02.342Z,3.34
2018-01-22T03:59:33.426Z,3.36
2018-01-22T04:02:04.531Z,3.43
2018-01-22T04:04:35.607Z,3.51
2018-01-22T04:07:06.770Z,3.38
2018-01-22T04:09:38.968Z,3.29
2018-01-22T04:12:10.044Z,3.12
2018-01-22T04:14:41.098Z,3.20
2018-01-22T04:17:12.153Z,3.33
2018-01-22T04:19:43.334Z,3.33
2018-01-22T04:22:14.395Z,3.34
2018-01-22T04:24:45.450Z,3.44
2018-01-22T04:27:16.570Z,3.49
2018-01-22T04:29:47.619Z,3.54
2018-01-22T04:32:18.711Z,3.53
2018-01-22T04:34:49.779Z,3.54
2018-01-22T04:37:20.864Z,3.53
2018-01-22T04:39:51.924Z,3.52
2018-01-22T04:42:23.006Z,3.57
2018-01-22T04:44:54.097Z,3.63
2018-01-22T04:47:25.169Z,3.72
2018-01-22T04:49:56.253Z,3.74
2018-01-22T04:52:27.343Z,3.72
2018-01-22T04:54:58.381Z,3.72
2018-01-22T04:57:29.474Z,3.66
2018-01-22T05:00:00.558Z,3.65
2018-01-22T05:02:31.753Z,3.63
2018-01-22T05:05:03.175Z,3.59
2018-01-22T05:07:34.238Z,3.62
2018-01-22T05:10:05.351Z,3.67
2018-01-22T05:12:36.448Z,3.71
2018-01-22T05:15:07.505Z,3.75
2018-01-22T05:17:38.619Z,3.85
2018-01-22T05:20:09.637Z,3.82
2018-01-22T05:22:40.690Z,3.74
2018-01-22T05:25:11.718Z,3.66
2018-01-22T05:27:42.851Z,3.70
2018-01-22T05:30:13.952Z,3.60
2018-01-22T05:32:44.986Z,3.60
2018-01-22T05:35:16.077Z,3.60
2018-01-22T05:37:47.163Z,3.57
2018-01-22T05:40:18.259Z,3.52
2018-01-22T05:42:49.663Z,3.51
2018-01-22T05:45:20.795Z,3.49
2018-01-22T05:47:51.859Z,3.47
2018-01-22T05:50:22.984Z,3.42
2018-01-22T05:52:54.080Z,3.39
2018-01-22T05:55:25.198Z,3.34
2018-01-22T05:57:56.303Z,3.37
2018-01-22T06:00:27.419Z,3.41
2018-01-22T06:02:58.482Z,3.44
2018-01-22T06:05:29.652Z,3.43
2018-01-22T06:08:00.803Z,3.42
2018-01-22T06:10:31.893Z,3.46
2018-01-22T06:13:03.093Z,3.50
2018-01-22T06:15:34.186Z,3.45
2018-01-22T06:18:05.301Z,3.43
2018-01-22T06:20:36.358Z,3.40
2018-01-22T06:23:07.441Z,3.40
2018-01-22T06:25:38.581Z,3.32
2018-01-22T06:28:09.666Z,3.27
2018-01-22T06:30:40.826Z,3.23
2018-01-22T06:33:11.913Z,3.21
2018-01-22T06:35:43.015Z,3.27
2018-01-22T06:38:14.074Z,3.17
2018-01-22T06:40:45.160Z,3.10
2018-01-22T06:43:16.214Z,3.23
2018-01-22T06:45:47.303Z,3.27
2018-01-22T06:48:18.374Z,3.28
2018-01-22T06:50:49.510Z,3.28
2018-01-22T06:53:20.577Z,3.20
2018-01-22T06:55:51.671Z,3.22
2018-01-22T06:58:22.694Z,3.27
2018-01-22T07:00:53.747Z,3.31
2018-01-22T07:03:24.826Z,3.49
2018-01-22T07:06:03.033Z,3.62
2018-01-22T07:08:34.100Z,3.70
2018-01-22T07:11:05.169Z,3.77
2018-01-22T07:13:36.276Z,3.77
2018-01-22T07:16:07.325Z,3.87
2018-01-22T07:18:38.426Z,4.03
2018-01-22T07:21:09.464Z,4.06
2018-01-22T07:23:40.555Z,4.06
2018-01-22T07:26:12.692Z,4.16
2018-01-22T07:28:43.764Z,4.26
2018-01-22T07:31:14.898Z,4.31
2018-01-22T07:33:45.934Z,4.39
2018-01-22T07:36:17.026Z,4.51
2018-01-22T07:38:48.109Z,4.44
2018-01-22T07:41:19.321Z,4.60
2018-01-22T07:43:50.348Z,4.71
2018-01-22T07:46:21.415Z,4.81
2018-01-22T07:48:52.466Z,4.93
2018-01-22T07:51:23.598Z,4.99
2018-01-22T07:53:54.689Z,5.03
2018-01-22T07:56:25.764Z,5.20
2018-01-22T07:58:56.872Z,5.36
2018-01-22T08:01:27.972Z,5.44
2018-01-22T08:03:59.050Z,5.41
2018-01-22T08:06:30.124Z,5.45
2018-01-22T08:09:01.188Z,5.52
2018-01-22T08:11:32.283Z,5.71
2018-01-22T08:14:03.360Z,5.85
2018-01-22T08:16:34.485Z,6.05
2018-01-22T08:19:05.581Z,6.34
2018-01-22T08:21:36.669Z,6.31
2018-01-22T08:24:07.702Z,6.01
2018-01-22T08:26:38.830Z,5.89
2018-01-22T08:29:09.866Z,5.90
2018-01-22T08:31:41.006Z,5.95
2018-01-22T08:34:12.117Z,5.90
2018-01-22T08:36:43.234Z,6.10
2018-01-22T08:39:14.316Z,6.29
2018-01-22T08:41:45.915Z,6.39
2018-01-22T08:44:17.898Z,6.35
2018-01-22T08:46:48.996Z,6.55
2018-01-22T08:49:20.040Z,6.70
2018-01-22T08:51:51.160Z,6.57
2018-01-22T08:54:22.293Z,6.61
2018-01-22T08:56:53.424Z,6.59
2018-01-22T08:59:24.519Z,6.63
2018-01-22T09:01:55.581Z,6.67
2018-01-22T09:04:27.630Z,6.74
2018-01-22T09:06:58.763Z,6.60
2018-01-22T09:09:29.851Z,6.40
2018-01-22T09:12:00.955Z,6.29
2018-01-22T09:14:32.004Z,6.34
2018-01-22T09:17:03.156Z,6.39
2018-01-22T09:19:34.198Z,6.43
2018-01-22T09:22:06.030Z,6.59
2018-01-22T09:24:37.089Z,6.71
2018-01-22T09:27:08.144Z,6.72
2018-01-22T09:29:39.258Z,6.87
2018-01-22T09:32:10.371Z,6.94
2018-01-22T09:34:41.462Z,7.05
2018-01-22T09:37:12.724Z,7.31
2018-01-22T09:39:43.838Z,7.66
2018-01-22T09:42:14.945Z,7.89
2018-01-22T09:44:46.043Z,7.84
2018-01-22T09:47:17.120Z,7.66
2018-01-22T09:49:48.216Z,7.37
2018-01-22T09:52:19.326Z,7.27
2018-01-22T09:54:50.614Z,7.27
2018-01-22T09:57:21.681Z,7.34
2018-01-22T09:59:52.805Z,7.41
2018-01-22T10:02:23.914Z,7.27
2018-01-22T10:04:55.042Z,7.17
2018-01-22T10:07:26.130Z,7.27
2018-01-22T10:09:57.250Z,7.24
2018-01-22T10:12:28.355Z,7.33
2018-01-22T10:14:59.453Z,7.34
2018-01-22T10:17:30.876Z,7.25
2018-01-22T10:20:02.006Z,6.99
2018-01-22T10:22:33.104Z,7.01
2018-01-22T10:25:04.227Z,7.42
2018-01-22T10:27:35.310Z,7.72
2018-01-22T10:30:06.394Z,7.89
2018-01-22T10:32:37.476Z,8.06
2018-01-22T10:35:08.628Z,8.24
2018-01-22T10:37:39.772Z,8.45
2018-01-22T10:40:10.818Z,8.40
2018-01-22T10:42:41.934Z,8.15
2018-01-22T10:45:13.010Z,8.10
2018-01-22T10:47:44.124Z,7.96
2018-01-22T10:50:15.253Z,7.83
2018-01-22T10:52:46.326Z,7.83
2018-01-22T10:55:17.456Z,7.94
2018-01-22T10:57:48.517Z,7.92
2018-01-22T11:00:19.594Z,7.94
2018-01-22T11:02:50.715Z,7.97
2018-01-22T11:05:21.758Z,8.12
2018-01-22T11:07:52.884Z,8.16
2018-01-22T11:10:24.018Z,8.16
2018-01-22T11:12:55.129Z,8.26
2018-01-22T11:15:32.292Z,8.37
2018-01-22T11:18:03.473Z,8.22
2018-01-22T11:23:10.566Z,7.92
2018-01-22T11:25:41.630Z,7.67
2018-01-22T11:28:12.733Z,7.59
2018-01-22T11:30:43.930Z,7.67
2018-01-22T11:33:15.032Z,7.74
2018-01-22T11:35:46.074Z,7.90
2018-01-22T11:38:17.182Z,8.04
2018-01-22T11:40:48.276Z,7.93
2018-01-22T11:43:19.388Z,7.98
2018-01-22T11:45:50.501Z,7.95
2018-01-22T11:48:21.605Z,7.86
2018-01-22T11:50:52.669Z,7.89
2018-01-22T11:53:23.780Z,7.87
2018-01-22T11:55:54.911Z,7.72
2018-01-22T11:58:25.992Z,7.59
2018-01-22T12:00:57.084Z,7.18
2018-01-22T12:03:28.821Z,7.28
2018-01-22T12:05:59.872Z,7.37
2018-01-22T12:08:30.963Z,7.55
2018-01-22T12:11:02.049Z,7.72
2018-01-22T12:13:33.119Z,7.56
2018-01-22T12:16:04.254Z,7.56
2018-01-22T12:18:35.374Z,7.55
2018-01-22T12:21:06.530Z,7.62
2018-01-22T12:23:37.641Z,7.63
2018-01-22T12:26:08.691Z,7.67
2018-01-22T12:28:39.760Z,7.57
2018-01-22T12:31:10.873Z,7.47
2018-01-22T12:33:41.957Z,7.49
2018-01-22T12:36:13.026Z,7.37
2018-01-22T12:38:44.705Z,7.03
2018-01-22T12:41:15.766Z,6.90
2018-01-22T12:43:46.796Z,6.82
2018-01-22T12:46:17.894Z,6.67
2018-01-22T12:48:49.102Z,6.94
2018-01-22T12:51:20.159Z,7.22
2018-01-22T12:53:51.225Z,7.42
2018-01-22T12:56:22.639Z,7.49
2018-01-22T12:58:53.748Z,7.61
2018-01-22T13:01:24.864Z,7.56
2018-01-22T13:03:55.895Z,7.37
2018-01-22T13:06:26.982Z,7.39
2018-01-22T13:08:58.049Z,7.39
2018-01-22T13:11:29.291Z,7.38
2018-01-22T13:14:00.319Z,7.49
2018-01-22T13:16:31.434Z,7.58
2018-01-22T13:19:02.508Z,7.55
2018-01-22T13:21:33.577Z,7.65
2018-01-22T13:24:04.667Z,7.50
2018-01-22T13:26:35.766Z,7.49
2018-01-22T13:29:06.898Z,7.48
2018-01-22T13:31:38.026Z,7.39
2018-01-22T13:34:09.079Z,7.43
2018-01-22T13:36:40.190Z,7.58
2018-01-22T13:39:11.272Z,7.65
2018-01-22T13:41:42.394Z,7.51
2018-01-22T13:44:13.433Z,7.51
2018-01-22T13:46:44.517Z,7.59
2018-01-22T13:49:15.609Z,7.68
2018-01-22T13:51:46.741Z,7.71
2018-01-22T13:54:17.834Z,7.75
2018-01-22T13:56:48.946Z,7.81
2018-01-22T13:59:20.416Z,7.85
2018-01-22T14:01:51.505Z,7.91
2018-01-22T14:04:22.612Z,7.86
2018-01-22T14:06:53.694Z,7.84
2018-01-22T14:09:24.818Z,7.85
2018-01-22T14:11:55.846Z,7.91
2018-01-22T14:14:26.985Z,7.87
2018-01-22T14:16:58.084Z,7.79
2018-01-22T14:19:30.663Z,7.75
2018-01-22T14:22:01.768Z,7.73
2018-01-22T14:24:32.851Z,7.74
2018-01-22T14:27:03.954Z,7.70
2018-01-22T14:29:34.994Z,7.61
2018-01-22T14:32:06.091Z,7.61
2018-01-22T14:34:37.181Z,7.45
2018-01-22T14:37:08.314Z,7.33
2018-01-22T14:39:39.448Z,7.34
2018-01-22T14:42:10.536Z,7.26
2018-01-22T14:44:41.605Z,7.25
2018-01-22T14:47:12.714Z,7.20
2018-01-22T14:49:43.812Z,7.19
2018-01-22T14:52:14.844Z,7.17
2018-01-22T14:54:45.921Z,7.14
2018-01-22T14:57:16.959Z,7.06
2018-01-22T14:59:48.185Z,7.07
2018-01-22T15:02:19.231Z,7.10
2018-01-22T15:04:50.369Z,7.09
2018-01-22T15:07:21.455Z,7.07
2018-01-22T15:09:52.527Z,7.05
2018-01-22T15:12:23.597Z,7.12
2018-01-22T15:14:54.745Z,7.20
2018-01-22T15:17:25.847Z,7.16
2018-01-22T15:19:57.005Z,7.04
2018-01-22T15:22:28.146Z,6.94
2018-01-22T15:24:59.326Z,6.85
2018-01-22T15:27:30.450Z,6.83
2018-01-22T15:30:01.572Z,6.91
2018-01-22T15:32:32.635Z,6.93
2018-01-22T15:35:03.727Z,6.92
2018-01-22T15:37:34.907Z,6.89
2018-01-22T15:40:06.027Z,6.74
2018-01-22T15:42:37.139Z,6.71
2018-01-22T15:45:08.218Z,6.62
2018-01-22T15:47:39.307Z,6.66
2018-01-22T15:50:10.413Z,6.58
2018-01-22T15:52:41.547Z,6.68
2018-01-22T15:55:12.644Z,6.65
2018-01-22T15:57:43.772Z,6.56
2018-01-22T16:00:14.959Z,6.53
2018-01-22T16:02:46.052Z,6.53
2018-01-22T16:05:17.158Z,6.62
2018-01-22T16:07:48.292Z,6.62
2018-01-22T16:10:19.372Z,6.66
2018-01-22T16:12:50.509Z,6.60
2018-01-22T16:15:21.575Z,6.38
2018-01-22T16:17:52.703Z,6.22
2018-01-22T16:20:23.860Z,6.12
2018-01-22T16:22:54.953Z,6.22
2018-01-22T16:25:26.086Z,6.35
2018-01-22T16:27:57.192Z,6.43
2018-01-22T16:30:28.304Z,6.29
2018-01-22T16:32:59.343Z,6.36
2018-01-22T16:35:30.417Z,6.45
2018-01-22T16:38:01.572Z,6.51
2018-01-22T16:40:32.631Z,6.58
2018-01-22T16:43:03.814Z,6.62
2018-01-22T16:45:34.882Z,6.59
2018-01-22T16:48:05.979Z,6.65
2018-01-22T16:50:37.061Z,6.73
2018-01-22T16:53:08.795Z,6.63
2018-01-22T16:55:39.903Z,6.52
2018-01-22T16:58:10.988Z,6.39
2018-01-22T17:00:42.073Z,6.31
2018-01-22T17:03:13.128Z,6.24
2018-01-22T17:05:44.316Z,6.27
2018-01-22T17:08:15.400Z,6.36
2018-01-22T17:10:47.278Z,6.41
2018-01-22T17:13:18.347Z,6.41
2018-01-22T17:15:49.461Z,6.43
2018-01-22T17:18:20.501Z,6.44
2018-01-22T17:20:52.948Z,6.48
2018-01-22T17:23:24.043Z,6.57
2018-01-22T17:25:55.122Z,6.61
2018-01-22T17:28:26.175Z,6.69
2018-01-22T17:30:57.310Z,6.76
2018-01-22T17:33:28.409Z,6.83
2018-01-22T17:35:59.525Z,6.83
2018-01-22T17:38:30.599Z,6.83
2018-01-22T17:41:01.709Z,6.82
2018-01-22T17:43:32.840Z,6.79
2018-01-22T17:46:03.938Z,6.76
2018-01-22T17:48:35.191Z,6.76
2018-01-22T17:51:06.288Z,6.82
2018-01-22T17:53:37.344Z,6.86
2018-01-22T17:56:08.428Z,6.88
2018-01-22T17:58:39.693Z,6.84
2018-01-22T18:01:10.826Z,6.86
2018-01-22T18:03:41.864Z,6.84
2018-01-22T18:06:13.025Z,6.84
2018-01-22T18:08:44.102Z,6.90
2018-01-22T18:11:15.208Z,6.94
2018-01-22T18:13:46.273Z,6.96
2018-01-22T18:16:17.366Z,6.84
2018-01-22T18:18:48.471Z,6.83
2018-01-22T18:21:19.586Z,6.84
2018-01-22T18:23:50.678Z,6.79
2018-01-22T18:26:21.778Z,6.84
2018-01-22T18:28:52.799Z,6.84
2018-01-22T18:31:23.916Z,6.80
2018-01-22T18:33:54.957Z,6.67
2018-01-22T18:36:26.049Z,6.66
2018-01-22T18:38:58.398Z,6.71
2018-01-22T18:41:29.464Z,6.79
2018-01-22T18:44:00.569Z,6.87
2018-01-22T18:46:31.673Z,6.96
2018-01-22T18:49:02.730Z,6.98
2018-01-22T18:51:33.776Z,7.03
2018-01-22T18:54:04.824Z,7.09
2018-01-22T18:56:35.926Z,7.11
2018-01-22T18:59:07.034Z,7.07
2018-01-22T19:01:45.153Z,7.04
2018-01-22T19:04:16.233Z,6.97
2018-01-22T19:06:47.664Z,7.02
2018-01-22T19:09:18.768Z,7.03
2018-01-22T19:11:49.885Z,7.04
2018-01-22T19:14:21.022Z,7.07
2018-01-22T19:16:52.110Z,7.09
2018-01-22T19:19:23.202Z,7.08
2018-01-22T19:21:54.280Z,7.03
2018-01-22T19:24:25.392Z,6.97
2018-01-22T19:26:56.464Z,6.92
2018-01-22T19:29:27.518Z,6.85
2018-01-22T19:31:58.583Z,6.76
2018-01-22T19:34:29.655Z,6.72
2018-01-22T19:37:00.757Z,6.74
2018-01-22T19:39:31.793Z,6.75
2018-01-22T19:42:02.946Z,6.73
2018-01-22T19:44:33.980Z,6.76
2018-01-22T19:47:05.081Z,6.75
2018-01-22T19:49:36.162Z,6.72
2018-01-22T19:52:07.255Z,6.73
2018-01-22T19:54:38.356Z,6.70
2018-01-22T19:57:09.456Z,6.64
2018-01-22T19:59:40.559Z,6.59
2018-01-22T20:02:11.647Z,6.52
2018-01-22T20:04:42.711Z,6.48
2018-01-22T20:07:13.865Z,6.47
2018-01-22T20:09:45.004Z,6.41
2018-01-22T20:12:16.074Z,6.41
2018-01-22T20:14:47.107Z,6.41
2018-01-22T20:17:18.410Z,6.38
2018-01-22T20:19:49.487Z,6.41
2018-01-22T20:22:20.561Z,6.39
2018-01-22T20:24:51.673Z,6.41
2018-01-22T20:27:22.728Z,6.40
2018-01-22T20:29:53.806Z,6.37
2018-01-22T20:32:24.892Z,6.27
2018-01-22T20:34:55.984Z,6.23
2018-01-22T20:37:27.101Z,6.20
2018-01-22T20:39:58.171Z,6.22
2018-01-22T20:42:29.246Z,6.21
2018-01-22T20:45:00.308Z,6.23
2018-01-22T20:47:31.531Z,6.27
2018-01-22T20:50:02.632Z,6.35
2018-01-22T20:55:01.220Z,6.28
2018-01-22T20:57:32.314Z,6.28
2018-01-22T21:00:03.422Z,6.26
2018-01-22T21:02:34.481Z,6.25
2018-01-22T21:05:05.527Z,6.18
2018-01-22T21:07:36.585Z,6.13
2018-01-22T21:10:07.654Z,6.08
2018-01-22T21:12:38.714Z,6.04
2018-01-22T21:15:09.773Z,6.05
2018-01-22T21:17:40.841Z,6.07
2018-01-22T21:20:11.946Z,6.10
2018-01-22T21:22:43.033Z,6.01
2018-01-22T21:25:15.913Z,6.03
2018-01-22T21:27:46.935Z,6.08
2018-01-22T21:30:18.040Z,6.14
2018-01-22T21:32:49.105Z,6.18
2018-01-22T21:35:20.212Z,6.26
2018-01-22T21:37:51.258Z,6.29
2018-01-22T21:40:22.334Z,6.30
2018-01-22T21:42:53.390Z,6.33
2018-01-22T21:45:24.503Z,6.29
2018-01-22T21:47:56.367Z,6.29
2018-01-22T21:50:27.653Z,6.27
2018-01-22T21:52:58.723Z,6.30
2018-01-22T21:55:29.839Z,6.30
2018-01-22T21:58:00.933Z,6.30
2018-01-22T22:00:31.997Z,6.26
2018-01-22T22:03:03.112Z,6.26
2018-01-22T22:05:34.182Z,6.25
2018-01-22T22:08:05.296Z,6.34
2018-01-22T22:10:36.372Z,6.41
2018-01-22T22:13:07.446Z,6.45
2018-01-22T22:15:38.591Z,6.55
2018-01-22T22:18:09.663Z,6.67
2018-01-22T22:20:40.783Z,6.78
2018-01-22T22:23:11.876Z,6.91
2018-01-22T22:25:42.972Z,6.99
2018-01-22T22:28:14.024Z,7.00
2018-01-22T22:30:45.129Z,7.03
2018-01-22T22:33:16.197Z,7.02
2018-01-22T22:35:47.319Z,6.97
2018-01-22T22:38:18.397Z,6.86
2018-01-22T22:40:49.514Z,6.80
2018-01-22T22:43:20.604Z,6.72
2018-01-22T22:45:51.670Z,6.74
2018-01-22T22:48:22.763Z,6.81
2018-01-22T22:50:53.894Z,6.82
2018-01-22T22:53:24.941Z,6.80
2018-01-22T22:55:55.990Z,6.79
2018-01-22T22:58:27.369Z,6.72
2018-01-22T23:00:58.428Z,6.66
2018-01-22T23:03:29.508Z,6.70
2018-01-22T23:06:00.554Z,6.82
2018-01-22T23:08:31.702Z,6.91
2018-01-22T23:11:02.755Z,6.99
2018-01-22T23:13:33.857Z,7.05
2018-01-22T23:16:04.914Z,7.13
2018-01-22T23:18:35.975Z,7.17
2018-01-22T23:21:07.083Z,7.16
2018-01-22T23:23:38.140Z,7.13
2018-01-22T23:26:09.402Z,7.08
2018-01-22T23:28:40.417Z,7.07
2018-01-22T23:31:11.503Z,7.08
2018-01-22T23:33:42.585Z,7.02
2018-01-22T23:36:13.664Z,6.96
2018-01-22T23:38:44.676Z,6.89
2018-01-22T23:41:15.753Z,6.94
2018-01-22T23:43:53.834Z,6.95
2018-01-22T23:46:24.887Z,6.93
2018-01-22T23:48:55.951Z,6.97
2018-01-22T23:51:26.997Z,7.00
2018-01-22T23:53:58.129Z,7.04
2018-01-22T23:56:29.163Z,7.00
2018-01-22T23:59:00.257Z,6.98
